sensor_id;sensor_type;location;lat;lon;timestamp;pressure;altitude;pressure_sealevel;temperature;humidity
46690;BME280;32423;45.398;10.874;2023-04-29T00:00:02;100681.78;;;15.19;60.25
46690;BME280;32423;45.398;10.874;2023-04-29T00:02:58;100683.94;;;15.26;59.83
46690;BME280;32423;45.398;10.874;2023-04-29T00:05:50;100697.69;;;15.54;59.36
46690;BME280;32423;45.398;10.874;2023-04-29T00:08:40;100688.81;;;15.72;58.74
46690;BME280;32423;45.398;10.874;2023-04-29T00:11:32;100680.19;;;15.46;59.03
46690;BME280;32423;45.398;10.874;2023-04-29T00:14:24;100655.31;;;15.51;59.58
46690;BME280;32423;45.398;10.874;2023-04-29T00:17:16;100662.63;;;15.75;58.81
46690;BME280;32423;45.398;10.874;2023-04-29T00:20:08;100656.06;;;14.84;62.17
46690;BME280;32423;45.398;10.874;2023-04-29T00:23:00;100655.22;;;15.08;61.89
46690;BME280;32423;45.398;10.874;2023-04-29T00:25:49;100652.06;;;15.33;60.54
46690;BME280;32423;45.398;10.874;2023-04-29T00:28:42;100653.13;;;15.45;60.05
46690;BME280;32423;45.398;10.874;2023-04-29T00:31:34;100659.53;;;15.49;61.10
46690;BME280;32423;45.398;10.874;2023-04-29T00:34:26;100652.16;;;15.65;60.49
46690;BME280;32423;45.398;10.874;2023-04-29T00:37:18;100660.84;;;15.67;61.02
46690;BME280;32423;45.398;10.874;2023-04-29T00:40:09;100660.63;;;15.60;61.33
46690;BME280;32423;45.398;10.874;2023-04-29T00:43:00;100669.81;;;15.52;61.27
46690;BME280;32423;45.398;10.874;2023-04-29T00:45:50;100665.34;;;15.47;61.04
46690;BME280;32423;45.398;10.874;2023-04-29T00:48:39;100653.25;;;15.48;61.22
46690;BME280;32423;45.398;10.874;2023-04-29T00:51:31;100676.66;;;15.46;61.41
46690;BME280;32423;45.398;10.874;2023-04-29T00:54:21;100669.59;;;15.45;61.17
46690;BME280;32423;45.398;10.874;2023-04-29T00:57:13;100658.63;;;15.17;62.43
46690;BME280;32423;45.398;10.874;2023-04-29T01:00:03;100660.38;;;14.97;62.41
46690;BME280;32423;45.398;10.874;2023-04-29T01:02:55;100659.09;;;15.07;62.79
46690;BME280;32423;45.398;10.874;2023-04-29T01:05:47;100658.81;;;15.24;62.42
46690;BME280;32423;45.398;10.874;2023-04-29T01:08:51;100655.53;;;15.18;62.49
46690;BME280;32423;45.398;10.874;2023-04-29T01:15:03;100653.38;;;14.72;65.03
46690;BME280;32423;45.398;10.874;2023-04-29T01:18:01;100648.69;;;14.60;65.62
46690;BME280;32423;45.398;10.874;2023-04-29T01:20:52;100650.25;;;14.97;64.15
46690;BME280;32423;45.398;10.874;2023-04-29T01:23:44;100652.13;;;15.09;63.19
46690;BME280;32423;45.398;10.874;2023-04-29T01:26:34;100655.59;;;14.94;64.19
46690;BME280;32423;45.398;10.874;2023-04-29T01:29:31;100650.47;;;14.92;64.44
46690;BME280;32423;45.398;10.874;2023-04-29T01:33:09;100663.81;;;14.94;64.37
46690;BME280;32423;45.398;10.874;2023-04-29T01:38:50;100655.66;;;15.10;63.47
46690;BME280;32423;45.398;10.874;2023-04-29T01:41:45;100650.97;;;15.22;63.14
46690;BME280;32423;45.398;10.874;2023-04-29T01:44:44;100639.94;;;15.34;62.82
46690;BME280;32423;45.398;10.874;2023-04-29T01:47:38;100649.75;;;15.35;62.53
46690;BME280;32423;45.398;10.874;2023-04-29T01:50:28;100642.78;;;15.38;62.59
46690;BME280;32423;45.398;10.874;2023-04-29T01:53:25;100626.38;;;14.98;64.26
46690;BME280;32423;45.398;10.874;2023-04-29T01:56:17;100635.31;;;15.23;64.46
46690;BME280;32423;45.398;10.874;2023-04-29T01:59:18;100625.03;;;15.20;64.33
46690;BME280;32423;45.398;10.874;2023-04-29T02:02:34;100628.44;;;15.29;63.32
46690;BME280;32423;45.398;10.874;2023-04-29T02:05:46;100642.69;;;15.34;63.47
46690;BME280;32423;45.398;10.874;2023-04-29T02:08:38;100638.88;;;15.39;62.92
46690;BME280;32423;45.398;10.874;2023-04-29T02:11:31;100636.81;;;15.48;62.80
46690;BME280;32423;45.398;10.874;2023-04-29T02:14:23;100632.88;;;15.33;63.69
46690;BME280;32423;45.398;10.874;2023-04-29T02:17:15;100628.13;;;14.78;65.85
46690;BME280;32423;45.398;10.874;2023-04-29T02:20:07;100623.03;;;15.05;65.15
46690;BME280;32423;45.398;10.874;2023-04-29T02:22:59;100620.06;;;15.10;65.07
46690;BME280;32423;45.398;10.874;2023-04-29T02:25:51;100635.69;;;15.09;65.03
46690;BME280;32423;45.398;10.874;2023-04-29T02:28:44;100654.50;;;15.23;64.30
46690;BME280;32423;45.398;10.874;2023-04-29T02:31:36;100647.72;;;15.32;63.75
46690;BME280;32423;45.398;10.874;2023-04-29T02:34:28;100613.19;;;15.44;63.35
46690;BME280;32423;45.398;10.874;2023-04-29T02:37:20;100594.91;;;15.20;63.50
46690;BME280;32423;45.398;10.874;2023-04-29T02:40:12;100606.63;;;15.32;63.76
46690;BME280;32423;45.398;10.874;2023-04-29T02:43:05;100609.63;;;15.27;63.65
46690;BME280;32423;45.398;10.874;2023-04-29T02:45:57;100605.31;;;15.14;64.23
46690;BME280;32423;45.398;10.874;2023-04-29T02:48:49;100601.34;;;15.12;64.34
46690;BME280;32423;45.398;10.874;2023-04-29T02:51:38;100626.81;;;15.00;64.42
46690;BME280;32423;45.398;10.874;2023-04-29T02:54:30;100635.63;;;14.93;65.58
46690;BME280;32423;45.398;10.874;2023-04-29T02:57:20;100646.56;;;15.06;65.59
46690;BME280;32423;45.398;10.874;2023-04-29T03:00:12;100648.50;;;15.05;65.54
46690;BME280;32423;45.398;10.874;2023-04-29T03:03:04;100658.97;;;15.15;65.14
46690;BME280;32423;45.398;10.874;2023-04-29T03:05:56;100660.91;;;15.15;64.89
46690;BME280;32423;45.398;10.874;2023-04-29T03:08:48;100656.06;;;14.84;66.68
46690;BME280;32423;45.398;10.874;2023-04-29T03:11:40;100649.53;;;15.01;65.49
46690;BME280;32423;45.398;10.874;2023-04-29T03:14:32;100640.28;;;15.05;65.68
46690;BME280;32423;45.398;10.874;2023-04-29T03:17:24;100628.19;;;15.06;65.63
46690;BME280;32423;45.398;10.874;2023-04-29T03:20:16;100619.16;;;15.06;65.24
46690;BME280;32423;45.398;10.874;2023-04-29T03:23:08;100631.56;;;15.15;64.67
46690;BME280;32423;45.398;10.874;2023-04-29T03:25:58;100627.22;;;15.14;64.78
46690;BME280;32423;45.398;10.874;2023-04-29T03:28:47;100626.75;;;14.84;66.83
46690;BME280;32423;45.398;10.874;2023-04-29T03:31:39;100641.09;;;14.93;65.55
46690;BME280;32423;45.398;10.874;2023-04-29T03:34:31;100649.53;;;15.01;65.35
46690;BME280;32423;45.398;10.874;2023-04-29T03:37:36;100651.53;;;15.16;65.03
46690;BME280;32423;45.398;10.874;2023-04-29T03:40:42;100654.63;;;15.14;64.92
46690;BME280;32423;45.398;10.874;2023-04-29T03:43:35;100643.66;;;15.14;64.72
46690;BME280;32423;45.398;10.874;2023-04-29T03:46:28;100631.16;;;15.01;65.79
46690;BME280;32423;45.398;10.874;2023-04-29T03:49:17;100635.59;;;15.06;65.22
46690;BME280;32423;45.398;10.874;2023-04-29T03:52:09;100626.59;;;15.05;65.75
46690;BME280;32423;45.398;10.874;2023-04-29T03:55:01;100628.22;;;14.94;66.25
46690;BME280;32423;45.398;10.874;2023-04-29T03:57:53;100631.31;;;15.20;65.30
46690;BME280;32423;45.398;10.874;2023-04-29T04:00:44;100622.84;;;15.25;64.80
46690;BME280;32423;45.398;10.874;2023-04-29T04:03:39;100624.63;;;15.18;65.10
46690;BME280;32423;45.398;10.874;2023-04-29T04:06:31;100631.91;;;15.14;65.15
46690;BME280;32423;45.398;10.874;2023-04-29T04:09:23;100625.75;;;15.17;64.68
46690;BME280;32423;45.398;10.874;2023-04-29T04:12:15;100632.03;;;15.17;64.89
46690;BME280;32423;45.398;10.874;2023-04-29T04:15:07;100637.03;;;15.15;65.19
46690;BME280;32423;45.398;10.874;2023-04-29T04:17:59;100655.00;;;15.13;65.21
46690;BME280;32423;45.398;10.874;2023-04-29T04:20:51;100641.84;;;15.18;65.00
46690;BME280;32423;45.398;10.874;2023-04-29T04:23:44;100642.63;;;15.19;64.53
46690;BME280;32423;45.398;10.874;2023-04-29T04:26:39;100644.13;;;15.16;64.51
46690;BME280;32423;45.398;10.874;2023-04-29T04:29:38;100638.41;;;15.21;64.34
46690;BME280;32423;45.398;10.874;2023-04-29T04:32:34;100628.59;;;15.20;64.46
46690;BME280;32423;45.398;10.874;2023-04-29T04:35:26;100636.38;;;15.18;65.16
46690;BME280;32423;45.398;10.874;2023-04-29T04:38:18;100641.88;;;15.06;65.87
46690;BME280;32423;45.398;10.874;2023-04-29T04:41:10;100659.66;;;15.12;65.88
46690;BME280;32423;45.398;10.874;2023-04-29T04:44:03;100650.31;;;15.13;66.20
46690;BME280;32423;45.398;10.874;2023-04-29T04:47:02;100655.31;;;15.11;66.17
46690;BME280;32423;45.398;10.874;2023-04-29T04:50:26;100649.75;;;15.08;66.41
46690;BME280;32423;45.398;10.874;2023-04-29T04:53:18;100649.84;;;15.11;66.28
46690;BME280;32423;45.398;10.874;2023-04-29T04:56:15;100639.13;;;15.18;65.74
46690;BME280;32423;45.398;10.874;2023-04-29T04:59:04;100636.25;;;15.15;65.78
46690;BME280;32423;45.398;10.874;2023-04-29T05:01:57;100646.88;;;15.16;65.99
46690;BME280;32423;45.398;10.874;2023-04-29T05:04:49;100641.72;;;15.15;65.94
46690;BME280;32423;45.398;10.874;2023-04-29T05:07:39;100644.38;;;15.11;66.53
46690;BME280;32423;45.398;10.874;2023-04-29T05:10:31;100645.25;;;15.15;66.31
46690;BME280;32423;45.398;10.874;2023-04-29T05:13:23;100653.47;;;15.15;66.25
46690;BME280;32423;45.398;10.874;2023-04-29T05:16:13;100656.94;;;15.12;66.61
46690;BME280;32423;45.398;10.874;2023-04-29T05:19:05;100650.56;;;15.08;67.54
46690;BME280;32423;45.398;10.874;2023-04-29T05:21:57;100645.84;;;15.09;67.73
46690;BME280;32423;45.398;10.874;2023-04-29T05:24:49;100645.84;;;15.09;67.62
46690;BME280;32423;45.398;10.874;2023-04-29T05:27:41;100652.59;;;15.11;67.24
46690;BME280;32423;45.398;10.874;2023-04-29T05:30:35;100654.63;;;15.14;67.32
46690;BME280;32423;45.398;10.874;2023-04-29T05:33:27;100658.53;;;15.13;66.91
46690;BME280;32423;45.398;10.874;2023-04-29T05:36:19;100659.28;;;15.14;67.23
46690;BME280;32423;45.398;10.874;2023-04-29T05:39:11;100663.22;;;15.13;67.04
46690;BME280;32423;45.398;10.874;2023-04-29T05:42:02;100667.19;;;15.15;67.22
46690;BME280;32423;45.398;10.874;2023-04-29T05:45:00;100662.84;;;15.14;67.41
46690;BME280;32423;45.398;10.874;2023-04-29T05:47:52;100665.34;;;15.19;67.24
46690;BME280;32423;45.398;10.874;2023-04-29T05:50:44;100667.41;;;15.22;67.14
46690;BME280;32423;45.398;10.874;2023-04-29T05:53:36;100672.88;;;15.22;67.38
46690;BME280;32423;45.398;10.874;2023-04-29T05:56:29;100675.94;;;15.21;67.90
46690;BME280;32423;45.398;10.874;2023-04-29T05:59:21;100673.91;;;15.18;67.69
46690;BME280;32423;45.398;10.874;2023-04-29T06:02:14;100678.94;;;15.16;67.36
46690;BME280;32423;45.398;10.874;2023-04-29T06:05:04;100685.78;;;15.22;67.37
46690;BME280;32423;45.398;10.874;2023-04-29T06:07:58;100684.25;;;15.24;67.22
46690;BME280;32423;45.398;10.874;2023-04-29T06:11:01;100687.81;;;15.25;67.29
46690;BME280;32423;45.398;10.874;2023-04-29T06:13:55;100699.31;;;15.30;66.85
46690;BME280;32423;45.398;10.874;2023-04-29T06:16:47;100696.03;;;15.25;67.07
46690;BME280;32423;45.398;10.874;2023-04-29T06:19:36;100688.47;;;15.34;66.65
46690;BME280;32423;45.398;10.874;2023-04-29T06:22:29;100684.38;;;14.88;68.89
46690;BME280;32423;45.398;10.874;2023-04-29T06:25:23;100697.44;;;15.59;66.37
46690;BME280;32423;45.398;10.874;2023-04-29T06:28:15;100691.78;;;16.11;64.46
46690;BME280;32423;45.398;10.874;2023-04-29T06:31:07;100700.81;;;16.11;63.85
46690;BME280;32423;45.398;10.874;2023-04-29T06:33:59;100693.31;;;16.40;62.83
46690;BME280;32423;45.398;10.874;2023-04-29T06:36:49;100692.38;;;15.89;62.77
46690;BME280;32423;45.398;10.874;2023-04-29T06:40:08;100691.22;;;16.05;62.41
46690;BME280;32423;45.398;10.874;2023-04-29T06:43:18;100692.59;;;16.43;62.50
46690;BME280;32423;45.398;10.874;2023-04-29T06:46:30;100700.28;;;16.53;61.27
46690;BME280;32423;45.398;10.874;2023-04-29T06:49:43;100705.44;;;16.70;60.20
46690;BME280;32423;45.398;10.874;2023-04-29T06:52:35;100702.25;;;16.68;61.14
46690;BME280;32423;45.398;10.874;2023-04-29T06:55:24;100687.91;;;16.43;60.29
46690;BME280;32423;45.398;10.874;2023-04-29T06:58:17;100676.38;;;16.38;60.88
46690;BME280;32423;45.398;10.874;2023-04-29T07:01:09;100678.06;;;16.74;59.63
46690;BME280;32423;45.398;10.874;2023-04-29T07:04:00;100682.16;;;16.99;58.62
46690;BME280;32423;45.398;10.874;2023-04-29T07:06:50;100685.44;;;17.24;58.21
46690;BME280;32423;45.398;10.874;2023-04-29T07:09:42;100691.50;;;17.33;56.51
46690;BME280;32423;45.398;10.874;2023-04-29T07:12:34;100681.41;;;17.37;56.47
46690;BME280;32423;45.398;10.874;2023-04-29T07:15:26;100682.81;;;16.77;54.94
46690;BME280;32423;45.398;10.874;2023-04-29T07:18:18;100683.13;;;17.26;55.13
46690;BME280;32423;45.398;10.874;2023-04-29T07:21:10;100680.97;;;17.54;53.80
46690;BME280;32423;45.398;10.874;2023-04-29T07:24:02;100688.81;;;17.94;53.76
46690;BME280;32423;45.398;10.874;2023-04-29T07:26:54;100679.06;;;17.00;55.59
46690;BME280;32423;45.398;10.874;2023-04-29T07:29:46;100682.44;;;16.94;56.55
46690;BME280;32423;45.398;10.874;2023-04-29T07:32:36;100688.16;;;17.04;55.47
46690;BME280;32423;45.398;10.874;2023-04-29T07:35:28;100698.78;;;17.41;54.56
46690;BME280;32423;45.398;10.874;2023-04-29T07:38:20;100697.06;;;17.71;52.80
46690;BME280;32423;45.398;10.874;2023-04-29T07:41:10;100694.97;;;17.10;53.83
46690;BME280;32423;45.398;10.874;2023-04-29T07:44:02;100698.78;;;16.71;56.13
46690;BME280;32423;45.398;10.874;2023-04-29T07:46:51;100696.97;;;16.94;55.69
46690;BME280;32423;45.398;10.874;2023-04-29T07:49:43;100701.09;;;17.04;51.96
46690;BME280;32423;45.398;10.874;2023-04-29T07:52:33;100718.00;;;17.41;52.94
46690;BME280;32423;45.398;10.874;2023-04-29T07:55:25;100722.81;;;17.82;52.41
46690;BME280;32423;45.398;10.874;2023-04-29T07:58:17;100727.94;;;17.84;52.31
46690;BME280;32423;45.398;10.874;2023-04-29T08:01:07;100726.66;;;17.24;52.96
46690;BME280;32423;45.398;10.874;2023-04-29T08:03:58;100741.25;;;18.01;52.40
46690;BME280;32423;45.398;10.874;2023-04-29T08:06:51;100738.13;;;17.83;51.88
46690;BME280;32423;45.398;10.874;2023-04-29T08:09:41;100731.06;;;17.28;51.58
46690;BME280;32423;45.398;10.874;2023-04-29T08:12:31;100736.31;;;16.98;54.18
46690;BME280;32423;45.398;10.874;2023-04-29T08:15:23;100730.44;;;18.12;52.13
46690;BME280;32423;45.398;10.874;2023-04-29T08:18:15;100735.78;;;18.47;50.87
46690;BME280;32423;45.398;10.874;2023-04-29T08:21:07;100737.78;;;18.72;49.31
46690;BME280;32423;45.398;10.874;2023-04-29T08:23:59;100736.78;;;19.10;48.25
46690;BME280;32423;45.398;10.874;2023-04-29T08:26:51;100742.56;;;18.75;48.27
46690;BME280;32423;45.398;10.874;2023-04-29T08:29:41;100745.22;;;19.81;46.69
46690;BME280;32423;45.398;10.874;2023-04-29T08:32:31;100741.75;;;21.19;43.46
46690;BME280;32423;45.398;10.874;2023-04-29T08:35:23;100743.97;;;21.68;41.99
46690;BME280;32423;45.398;10.874;2023-04-29T08:38:13;100744.13;;;22.25;40.22
46690;BME280;32423;45.398;10.874;2023-04-29T08:41:06;100752.50;;;22.92;38.37
46690;BME280;32423;45.398;10.874;2023-04-29T08:43:57;100745.28;;;23.27;37.89
46690;BME280;32423;45.398;10.874;2023-04-29T08:46:50;100738.22;;;22.97;37.60
46690;BME280;32423;45.398;10.874;2023-04-29T08:49:39;100736.53;;;21.11;38.83
46690;BME280;32423;45.398;10.874;2023-04-29T08:52:32;100744.81;;;21.07;41.21
46690;BME280;32423;45.398;10.874;2023-04-29T08:55:22;100741.00;;;21.26;40.89
46690;BME280;32423;45.398;10.874;2023-04-29T08:58:14;100748.50;;;22.40;38.91
46690;BME280;32423;45.398;10.874;2023-04-29T09:01:06;100744.13;;;22.07;38.65
46690;BME280;32423;45.398;10.874;2023-04-29T09:04:07;100737.03;;;22.24;38.66
46690;BME280;32423;45.398;10.874;2023-04-29T09:06:58;100736.44;;;21.58;39.13
46690;BME280;32423;45.398;10.874;2023-04-29T09:09:50;100740.22;;;21.25;40.94
46690;BME280;32423;45.398;10.874;2023-04-29T09:12:43;100735.84;;;21.24;41.15
46690;BME280;32423;45.398;10.874;2023-04-29T09:15:36;100733.91;;;20.74;41.96
46690;BME280;32423;45.398;10.874;2023-04-29T09:21:32;100732.03;;;20.85;41.79
46690;BME280;32423;45.398;10.874;2023-04-29T09:24:27;100739.03;;;20.72;41.45
46690;BME280;32423;45.398;10.874;2023-04-29T09:27:29;100729.25;;;21.47;40.00
46690;BME280;32423;45.398;10.874;2023-04-29T09:30:21;100731.38;;;21.92;38.01
46690;BME280;32423;45.398;10.874;2023-04-29T09:33:13;100721.47;;;19.73;42.72
46690;BME280;32423;45.398;10.874;2023-04-29T09:36:02;100728.88;;;17.91;48.84
46690;BME280;32423;45.398;10.874;2023-04-29T09:38:54;100725.78;;;18.16;48.99
46690;BME280;32423;45.398;10.874;2023-04-29T09:41:57;100715.31;;;18.70;48.23
46690;BME280;32423;45.398;10.874;2023-04-29T09:44:50;100715.75;;;18.99;47.65
46690;BME280;32423;45.398;10.874;2023-04-29T09:47:42;100714.06;;;19.20;46.65
46690;BME280;32423;45.398;10.874;2023-04-29T09:50:33;100713.72;;;18.96;46.79
46690;BME280;32423;45.398;10.874;2023-04-29T09:53:27;100699.53;;;20.27;44.75
46690;BME280;32423;45.398;10.874;2023-04-29T09:56:19;100691.78;;;20.87;42.75
46690;BME280;32423;45.398;10.874;2023-04-29T09:59:11;100689.72;;;21.50;40.81
46690;BME280;32423;45.398;10.874;2023-04-29T10:02:03;100701.69;;;23.31;37.13
46690;BME280;32423;45.398;10.874;2023-04-29T10:04:57;100706.44;;;24.65;33.50
46690;BME280;32423;45.398;10.874;2023-04-29T10:07:49;100707.50;;;20.80;41.84
46690;BME280;32423;45.398;10.874;2023-04-29T10:10:42;100700.34;;;20.72;42.42
46690;BME280;32423;45.398;10.874;2023-04-29T10:13:34;100693.69;;;19.55;45.90
46690;BME280;32423;45.398;10.874;2023-04-29T10:16:30;100705.25;;;23.35;37.80
46690;BME280;32423;45.398;10.874;2023-04-29T10:19:20;100696.72;;;25.89;31.82
46690;BME280;32423;45.398;10.874;2023-04-29T10:22:15;100698.19;;;27.57;29.33
46690;BME280;32423;45.398;10.874;2023-04-29T10:25:10;100699.19;;;25.16;32.41
46690;BME280;32423;45.398;10.874;2023-04-29T10:28:02;100707.31;;;25.37;31.28
46690;BME280;32423;45.398;10.874;2023-04-29T10:30:54;100707.78;;;27.56;29.08
46690;BME280;32423;45.398;10.874;2023-04-29T10:33:47;100705.97;;;30.45;25.14
46690;BME280;32423;45.398;10.874;2023-04-29T10:36:39;100702.94;;;32.26;22.30
46690;BME280;32423;45.398;10.874;2023-04-29T10:39:31;100701.47;;;28.40;27.38
46690;BME280;32423;45.398;10.874;2023-04-29T10:42:34;100697.69;;;28.14;27.37
46690;BME280;32423;45.398;10.874;2023-04-29T10:45:27;100688.41;;;30.06;25.27
46690;BME280;32423;45.398;10.874;2023-04-29T10:48:19;100683.44;;;28.73;26.40
46690;BME280;32423;45.398;10.874;2023-04-29T10:51:12;100671.56;;;24.57;32.17
46690;BME280;32423;45.398;10.874;2023-04-29T10:54:16;100665.31;;;23.04;35.98
46690;BME280;32423;45.398;10.874;2023-04-29T10:57:08;100671.91;;;21.40;38.56
46690;BME280;32423;45.398;10.874;2023-04-29T11:00:20;100665.91;;;20.15;43.11
46690;BME280;32423;45.398;10.874;2023-04-29T11:03:12;100656.50;;;23.30;37.84
46690;BME280;32423;45.398;10.874;2023-04-29T11:06:25;100669.41;;;30.48;25.41
46690;BME280;32423;45.398;10.874;2023-04-29T11:09:28;100664.97;;;32.40;23.83
46690;BME280;32423;45.398;10.874;2023-04-29T11:12:17;100664.28;;;33.72;21.39
46690;BME280;32423;45.398;10.874;2023-04-29T11:15:08;100672.03;;;34.52;19.88
46690;BME280;32423;45.398;10.874;2023-04-29T11:17:57;100669.97;;;33.96;20.37
46690;BME280;32423;45.398;10.874;2023-04-29T11:24:00;100652.56;;;32.19;22.87
46690;BME280;32423;45.398;10.874;2023-04-29T11:26:52;100658.63;;;29.58;25.69
46690;BME280;32423;45.398;10.874;2023-04-29T11:29:42;100649.09;;;30.32;24.60
46690;BME280;32423;45.398;10.874;2023-04-29T11:32:35;100656.88;;;32.78;22.27
46690;BME280;32423;45.398;10.874;2023-04-29T11:35:27;100661.25;;;33.34;21.89
46690;BME280;32423;45.398;10.874;2023-04-29T11:38:17;100659.97;;;31.11;24.14
46690;BME280;32423;45.398;10.874;2023-04-29T11:41:11;100661.25;;;32.61;22.26
46690;BME280;32423;45.398;10.874;2023-04-29T11:44:01;100654.09;;;31.71;22.80
46690;BME280;32423;45.398;10.874;2023-04-29T11:46:53;100653.25;;;32.59;22.51
46690;BME280;32423;45.398;10.874;2023-04-29T11:49:49;100653.88;;;31.96;23.28
46690;BME280;32423;45.398;10.874;2023-04-29T11:52:41;100651.28;;;28.49;27.81
46690;BME280;32423;45.398;10.874;2023-04-29T11:55:33;100649.34;;;29.20;26.33
46690;BME280;32423;45.398;10.874;2023-04-29T11:58:23;100641.84;;;27.39;29.17
46690;BME280;32423;45.398;10.874;2023-04-29T12:01:15;100644.34;;;24.76;33.86
46690;BME280;32423;45.398;10.874;2023-04-29T12:04:04;100645.69;;;24.19;35.27
46690;BME280;32423;45.398;10.874;2023-04-29T12:06:56;100635.72;;;24.25;35.74
46690;BME280;32423;45.398;10.874;2023-04-29T12:09:46;100634.78;;;25.18;33.14
46690;BME280;32423;45.398;10.874;2023-04-29T12:12:35;100643.22;;;26.21;32.16
46690;BME280;32423;45.398;10.874;2023-04-29T12:15:23;100630.94;;;25.38;33.69
46690;BME280;32423;45.398;10.874;2023-04-29T12:18:15;100631.69;;;24.30;35.43
46690;BME280;32423;45.398;10.874;2023-04-29T12:21:05;100630.88;;;23.81;36.61
46690;BME280;32423;45.398;10.874;2023-04-29T12:23:52;100626.22;;;23.64;36.46
46690;BME280;32423;45.398;10.874;2023-04-29T12:26:44;100633.53;;;23.23;38.35
46690;BME280;32423;45.398;10.874;2023-04-29T12:29:34;100630.47;;;22.99;39.37
46690;BME280;32423;45.398;10.874;2023-04-29T12:32:26;100631.00;;;23.60;39.16
46690;BME280;32423;45.398;10.874;2023-04-29T12:35:17;100629.94;;;23.99;37.23
46690;BME280;32423;45.398;10.874;2023-04-29T12:38:06;100614.75;;;24.17;37.38
46690;BME280;32423;45.398;10.874;2023-04-29T12:40:58;100615.53;;;23.59;38.12
46690;BME280;32423;45.398;10.874;2023-04-29T12:43:48;100613.34;;;23.12;38.98
46690;BME280;32423;45.398;10.874;2023-04-29T12:46:40;100603.97;;;22.77;39.76
46690;BME280;32423;45.398;10.874;2023-04-29T12:49:33;100594.06;;;22.69;40.20
46690;BME280;32423;45.398;10.874;2023-04-29T12:52:25;100586.69;;;23.35;40.31
46690;BME280;32423;45.398;10.874;2023-04-29T12:55:14;100589.22;;;23.05;40.20
46690;BME280;32423;45.398;10.874;2023-04-29T12:58:06;100583.78;;;22.63;40.80
46690;BME280;32423;45.398;10.874;2023-04-29T13:00:56;100580.28;;;22.16;41.61
46690;BME280;32423;45.398;10.874;2023-04-29T13:03:48;100583.88;;;22.06;42.55
46690;BME280;32423;45.398;10.874;2023-04-29T13:06:39;100577.13;;;21.82;42.61
46690;BME280;32423;45.398;10.874;2023-04-29T13:09:30;100564.03;;;21.61;43.35
46690;BME280;32423;45.398;10.874;2023-04-29T13:12:22;100558.13;;;21.63;44.04
46690;BME280;32423;45.398;10.874;2023-04-29T13:15:11;100560.50;;;21.75;43.79
46690;BME280;32423;45.398;10.874;2023-04-29T13:18:03;100562.44;;;21.64;43.74
46690;BME280;32423;45.398;10.874;2023-04-29T13:20:55;100565.63;;;21.52;44.39
46690;BME280;32423;45.398;10.874;2023-04-29T13:23:45;100554.56;;;21.62;44.13
46690;BME280;32423;45.398;10.874;2023-04-29T13:26:34;100562.09;;;21.87;44.61
46690;BME280;32423;45.398;10.874;2023-04-29T13:29:23;100562.25;;;23.09;41.34
46690;BME280;32423;45.398;10.874;2023-04-29T13:32:17;100559.97;;;22.90;41.21
46690;BME280;32423;45.398;10.874;2023-04-29T13:35:09;100564.41;;;22.59;41.77
46690;BME280;32423;45.398;10.874;2023-04-29T13:38:01;100550.59;;;22.31;42.45
46690;BME280;32423;45.398;10.874;2023-04-29T13:40:50;100555.38;;;22.20;42.79
46690;BME280;32423;45.398;10.874;2023-04-29T13:43:42;100551.41;;;21.99;43.37
46690;BME280;32423;45.398;10.874;2023-04-29T13:46:32;100544.28;;;21.88;43.07
46690;BME280;32423;45.398;10.874;2023-04-29T13:49:24;100547.78;;;22.52;41.26
46690;BME280;32423;45.398;10.874;2023-04-29T13:52:16;100536.38;;;22.29;42.44
46690;BME280;32423;45.398;10.874;2023-04-29T13:55:08;100539.84;;;22.50;42.97
46690;BME280;32423;45.398;10.874;2023-04-29T13:58:00;100540.63;;;22.72;41.79
46690;BME280;32423;45.398;10.874;2023-04-29T14:00:53;100535.34;;;22.99;41.39
46690;BME280;32423;45.398;10.874;2023-04-29T14:03:46;100534.78;;;22.28;43.39
46690;BME280;32423;45.398;10.874;2023-04-29T14:06:38;100537.94;;;22.30;43.87
46690;BME280;32423;45.398;10.874;2023-04-29T14:09:27;100539.44;;;22.55;44.03
46690;BME280;32423;45.398;10.874;2023-04-29T14:12:19;100540.69;;;22.40;42.80
46690;BME280;32423;45.398;10.874;2023-04-29T14:15:11;100532.78;;;22.32;43.49
46690;BME280;32423;45.398;10.874;2023-04-29T14:18:03;100531.53;;;22.57;42.69
46690;BME280;32423;45.398;10.874;2023-04-29T14:20:55;100528.47;;;22.16;43.68
46690;BME280;32423;45.398;10.874;2023-04-29T14:23:48;100522.91;;;22.20;45.63
46690;BME280;32423;45.398;10.874;2023-04-29T14:26:37;100523.69;;;22.21;44.60
46690;BME280;32423;45.398;10.874;2023-04-29T14:29:29;100524.91;;;22.23;44.59
46690;BME280;32423;45.398;10.874;2023-04-29T14:32:19;100524.91;;;22.20;44.48
46690;BME280;32423;45.398;10.874;2023-04-29T14:35:11;100518.56;;;22.15;44.34
46690;BME280;32423;45.398;10.874;2023-04-29T14:38:03;100519.00;;;22.03;44.94
46690;BME280;32423;45.398;10.874;2023-04-29T14:40:55;100521.34;;;21.94;45.12
46690;BME280;32423;45.398;10.874;2023-04-29T14:43:47;100523.72;;;21.99;45.01
46690;BME280;32423;45.398;10.874;2023-04-29T14:46:40;100529.28;;;21.96;45.34
46690;BME280;32423;45.398;10.874;2023-04-29T14:49:32;100530.84;;;21.93;45.19
46690;BME280;32423;45.398;10.874;2023-04-29T14:52:19;100531.63;;;21.90;45.10
46690;BME280;32423;45.398;10.874;2023-04-29T14:55:11;100518.56;;;21.80;45.59
46690;BME280;32423;45.398;10.874;2023-04-29T14:58:03;100525.69;;;21.74;45.88
46690;BME280;32423;45.398;10.874;2023-04-29T15:00:50;100530.84;;;21.72;45.52
46690;BME280;32423;45.398;10.874;2023-04-29T15:03:42;100529.66;;;21.76;45.98